sensor_id;sensor_type;location;lat;lon;timestamp;P1;durP1;ratioP1;P2;durP2;ratioP2
38264;SDS011;24062;47.480;8.768;2022-09-09T00:01:37;6.77;;;1.70;;
38264;SDS011;24062;47.480;8.768;2022-09-09T00:04:13;3.40;;;1.80;;
38264;SDS011;24062;47.480;8.768;2022-09-09T00:06:48;4.00;;;1.70;;
38264;SDS011;24062;47.480;8.768;2022-09-09T00:09:23;2.17;;;1.50;;
38264;SDS011;24062;47.480;8.768;2022-09-09T00:11:54;2.17;;;1.63;;
38264;SDS011;24062;47.480;8.768;2022-09-09T00:14:30;3.20;;;2.00;;
38264;SDS011;24062;47.480;8.768;2022-09-09T00:17:04;2.30;;;1.70;;
38264;SDS011;24062;47.480;8.768;2022-09-09T00:19:37;4.77;;;2.03;;
38264;SDS011;24062;47.480;8.768;2022-09-09T00:22:14;9.60;;;1.70;;
38264;SDS011;24062;47.480;8.768;2022-09-09T00:24:44;7.83;;;1.67;;
38264;SDS011;24062;47.480;8.768;2022-09-09T00:27:16;2.63;;;1.50;;
38264;SDS011;24062;47.480;8.768;2022-09-09T00:29:50;2.23;;;1.30;;
38264;SDS011;24062;47.480;8.768;2022-09-09T00:32:20;2.63;;;1.30;;
38264;SDS011;24062;47.480;8.768;2022-09-09T00:34:51;3.83;;;1.83;;
38264;SDS011;24062;47.480;8.768;2022-09-09T00:37:21;6.93;;;1.67;;
38264;SDS011;24062;47.480;8.768;2022-09-09T00:39:52;5.20;;;2.23;;
38264;SDS011;24062;47.480;8.768;2022-09-09T00:42:24;4.40;;;1.63;;
38264;SDS011;24062;47.480;8.768;2022-09-09T00:44:54;4.73;;;1.60;;
38264;SDS011;24062;47.480;8.768;2022-09-09T00:50:14;7.13;;;1.13;;
38264;SDS011;24062;47.480;8.768;2022-09-09T00:52:56;3.20;;;1.20;;
38264;SDS011;24062;47.480;8.768;2022-09-09T00:55:37;5.03;;;1.20;;
38264;SDS011;24062;47.480;8.768;2022-09-09T00:58:08;2.43;;;1.30;;
38264;SDS011;24062;47.480;8.768;2022-09-09T01:00:37;3.93;;;1.33;;
38264;SDS011;24062;47.480;8.768;2022-09-09T01:03:12;2.30;;;1.30;;
38264;SDS011;24062;47.480;8.768;2022-09-09T01:05:50;4.17;;;1.43;;
38264;SDS011;24062;47.480;8.768;2022-09-09T01:08:36;5.40;;;1.13;;
38264;SDS011;24062;47.480;8.768;2022-09-09T01:11:25;4.37;;;1.33;;
38264;SDS011;24062;47.480;8.768;2022-09-09T01:13:56;3.00;;;1.30;;
38264;SDS011;24062;47.480;8.768;2022-09-09T01:16:29;10.00;;;2.00;;
38264;SDS011;24062;47.480;8.768;2022-09-09T01:18:57;3.97;;;1.13;;
38264;SDS011;24062;47.480;8.768;2022-09-09T01:21:27;4.90;;;1.20;;
38264;SDS011;24062;47.480;8.768;2022-09-09T01:24:09;1.73;;;1.10;;
38264;SDS011;24062;47.480;8.768;2022-09-09T01:26:48;5.33;;;1.13;;
38264;SDS011;24062;47.480;8.768;2022-09-09T01:29:18;4.00;;;1.20;;
38264;SDS011;24062;47.480;8.768;2022-09-09T01:31:52;2.17;;;1.37;;
38264;SDS011;24062;47.480;8.768;2022-09-09T01:34:21;3.17;;;1.30;;
38264;SDS011;24062;47.480;8.768;2022-09-09T01:36:51;4.20;;;1.97;;
38264;SDS011;24062;47.480;8.768;2022-09-09T01:39:21;4.17;;;1.63;;
38264;SDS011;24062;47.480;8.768;2022-09-09T01:41:49;2.30;;;1.43;;
38264;SDS011;24062;47.480;8.768;2022-09-09T01:44:16;1.90;;;1.50;;
38264;SDS011;24062;47.480;8.768;2022-09-09T01:46:44;3.83;;;1.13;;
38264;SDS011;24062;47.480;8.768;2022-09-09T01:49:11;3.10;;;1.70;;
38264;SDS011;24062;47.480;8.768;2022-09-09T01:51:38;3.00;;;1.57;;
38264;SDS011;24062;47.480;8.768;2022-09-09T01:54:08;4.13;;;1.40;;
38264;SDS011;24062;47.480;8.768;2022-09-09T01:56:37;2.03;;;1.10;;
38264;SDS011;24062;47.480;8.768;2022-09-09T01:59:22;5.37;;;1.70;;
38264;SDS011;24062;47.480;8.768;2022-09-09T02:01:59;3.60;;;1.40;;
38264;SDS011;24062;47.480;8.768;2022-09-09T02:04:36;3.30;;;1.90;;
38264;SDS011;24062;47.480;8.768;2022-09-09T02:07:06;2.00;;;1.70;;
38264;SDS011;24062;47.480;8.768;2022-09-09T02:09:47;7.50;;;1.83;;
38264;SDS011;24062;47.480;8.768;2022-09-09T02:12:20;3.23;;;1.40;;
38264;SDS011;24062;47.480;8.768;2022-09-09T02:14:52;4.53;;;1.73;;
38264;SDS011;24062;47.480;8.768;2022-09-09T02:17:22;4.90;;;1.67;;
38264;SDS011;24062;47.480;8.768;2022-09-09T02:19:55;2.67;;;1.70;;
38264;SDS011;24062;47.480;8.768;2022-09-09T02:22:26;2.53;;;1.40;;
38264;SDS011;24062;47.480;8.768;2022-09-09T02:24:56;3.63;;;1.70;;
38264;SDS011;24062;47.480;8.768;2022-09-09T02:27:26;2.20;;;1.50;;
38264;SDS011;24062;47.480;8.768;2022-09-09T02:29:55;4.97;;;1.53;;
38264;SDS011;24062;47.480;8.768;2022-09-09T02:32:23;4.60;;;1.93;;
38264;SDS011;24062;47.480;8.768;2022-09-09T02:34:52;4.30;;;2.10;;
38264;SDS011;24062;47.480;8.768;2022-09-09T02:37:23;2.97;;;1.23;;
38264;SDS011;24062;47.480;8.768;2022-09-09T02:39:55;2.90;;;1.87;;
38264;SDS011;24062;47.480;8.768;2022-09-09T02:42:22;3.50;;;1.30;;
38264;SDS011;24062;47.480;8.768;2022-09-09T02:44:49;3.17;;;1.50;;
38264;SDS011;24062;47.480;8.768;2022-09-09T02:47:20;3.97;;;1.73;;
38264;SDS011;24062;47.480;8.768;2022-09-09T02:49:57;6.50;;;2.13;;
38264;SDS011;24062;47.480;8.768;2022-09-09T02:52:36;2.70;;;1.53;;
38264;SDS011;24062;47.480;8.768;2022-09-09T02:55:12;2.97;;;1.73;;
38264;SDS011;24062;47.480;8.768;2022-09-09T02:57:44;2.57;;;1.30;;
38264;SDS011;24062;47.480;8.768;2022-09-09T03:00:13;3.20;;;1.43;;
38264;SDS011;24062;47.480;8.768;2022-09-09T03:02:42;2.60;;;1.47;;
38264;SDS011;24062;47.480;8.768;2022-09-09T03:05:10;2.23;;;1.40;;
38264;SDS011;24062;47.480;8.768;2022-09-09T03:07:38;2.20;;;1.30;;
38264;SDS011;24062;47.480;8.768;2022-09-09T03:10:05;3.00;;;1.60;;
38264;SDS011;24062;47.480;8.768;2022-09-09T03:12:33;2.33;;;1.37;;
38264;SDS011;24062;47.480;8.768;2022-09-09T03:15:00;5.00;;;1.67;;
38264;SDS011;24062;47.480;8.768;2022-09-09T03:17:27;4.20;;;1.10;;
38264;SDS011;24062;47.480;8.768;2022-09-09T03:19:55;8.90;;;1.53;;
38264;SDS011;24062;47.480;8.768;2022-09-09T03:22:23;1.80;;;1.27;;
38264;SDS011;24062;47.480;8.768;2022-09-09T03:24:50;4.40;;;1.57;;
38264;SDS011;24062;47.480;8.768;2022-09-09T03:27:18;1.90;;;1.10;;
38264;SDS011;24062;47.480;8.768;2022-09-09T03:29:45;5.63;;;1.07;;
38264;SDS011;24062;47.480;8.768;2022-09-09T03:32:16;2.80;;;1.07;;
38264;SDS011;24062;47.480;8.768;2022-09-09T03:34:43;4.40;;;1.20;;
38264;SDS011;24062;47.480;8.768;2022-09-09T03:37:13;2.70;;;1.33;;
38264;SDS011;24062;47.480;8.768;2022-09-09T03:39:40;2.73;;;1.03;;
38264;SDS011;24062;47.480;8.768;2022-09-09T03:42:07;3.30;;;1.47;;
38264;SDS011;24062;47.480;8.768;2022-09-09T03:44:34;3.57;;;1.30;;
38264;SDS011;24062;47.480;8.768;2022-09-09T03:47:01;3.30;;;1.30;;
38264;SDS011;24062;47.480;8.768;2022-09-09T03:49:28;5.23;;;1.50;;
38264;SDS011;24062;47.480;8.768;2022-09-09T03:51:55;2.40;;;1.20;;
38264;SDS011;24062;47.480;8.768;2022-09-09T03:54:24;2.90;;;1.20;;
38264;SDS011;24062;47.480;8.768;2022-09-09T03:56:52;5.83;;;1.47;;
38264;SDS011;24062;47.480;8.768;2022-09-09T03:59:19;6.03;;;1.37;;
38264;SDS011;24062;47.480;8.768;2022-09-09T04:01:47;2.50;;;1.33;;
38264;SDS011;24062;47.480;8.768;2022-09-09T04:04:14;3.33;;;1.10;;
38264;SDS011;24062;47.480;8.768;2022-09-09T04:06:40;2.93;;;1.40;;
38264;SDS011;24062;47.480;8.768;2022-09-09T04:09:07;1.53;;;1.00;;
38264;SDS011;24062;47.480;8.768;2022-09-09T04:11:35;4.43;;;1.70;;
38264;SDS011;24062;47.480;8.768;2022-09-09T04:14:02;2.57;;;1.30;;
38264;SDS011;24062;47.480;8.768;2022-09-09T04:16:31;3.27;;;1.43;;
38264;SDS011;24062;47.480;8.768;2022-09-09T04:18:58;1.80;;;1.27;;
38264;SDS011;24062;47.480;8.768;2022-09-09T04:21:26;2.20;;;1.03;;
38264;SDS011;24062;47.480;8.768;2022-09-09T04:23:53;2.23;;;1.20;;
38264;SDS011;24062;47.480;8.768;2022-09-09T04:26:20;5.17;;;1.40;;
38264;SDS011;24062;47.480;8.768;2022-09-09T04:28:48;3.00;;;1.40;;
38264;SDS011;24062;47.480;8.768;2022-09-09T04:31:16;2.80;;;1.17;;
38264;SDS011;24062;47.480;8.768;2022-09-09T04:33:45;5.80;;;1.70;;
38264;SDS011;24062;47.480;8.768;2022-09-09T04:36:12;5.93;;;1.60;;
38264;SDS011;24062;47.480;8.768;2022-09-09T04:38:39;2.70;;;1.47;;
38264;SDS011;24062;47.480;8.768;2022-09-09T04:41:07;4.83;;;1.50;;
38264;SDS011;24062;47.480;8.768;2022-09-09T04:43:36;2.83;;;1.43;;
38264;SDS011;24062;47.480;8.768;2022-09-09T04:46:04;3.70;;;1.33;;
38264;SDS011;24062;47.480;8.768;2022-09-09T04:48:31;2.00;;;1.40;;
38264;SDS011;24062;47.480;8.768;2022-09-09T04:50:59;4.23;;;1.40;;
38264;SDS011;24062;47.480;8.768;2022-09-09T04:53:27;5.40;;;1.60;;
38264;SDS011;24062;47.480;8.768;2022-09-09T04:56:00;5.03;;;1.00;;
38264;SDS011;24062;47.480;8.768;2022-09-09T04:58:28;3.87;;;1.03;;
38264;SDS011;24062;47.480;8.768;2022-09-09T05:01:02;2.47;;;1.57;;
38264;SDS011;24062;47.480;8.768;2022-09-09T05:03:31;3.20;;;1.23;;
38264;SDS011;24062;47.480;8.768;2022-09-09T05:06:02;2.23;;;1.47;;
38264;SDS011;24062;47.480;8.768;2022-09-09T05:08:33;8.40;;;1.50;;
38264;SDS011;24062;47.480;8.768;2022-09-09T05:11:00;2.00;;;1.40;;
38264;SDS011;24062;47.480;8.768;2022-09-09T05:13:28;4.33;;;1.50;;
38264;SDS011;24062;47.480;8.768;2022-09-09T05:15:56;4.07;;;1.63;;
38264;SDS011;24062;47.480;8.768;2022-09-09T05:18:25;2.13;;;1.40;;
38264;SDS011;24062;47.480;8.768;2022-09-09T05:20:51;2.87;;;1.70;;
38264;SDS011;24062;47.480;8.768;2022-09-09T05:23:18;2.40;;;1.53;;
38264;SDS011;24062;47.480;8.768;2022-09-09T05:25:53;4.13;;;1.70;;
38264;SDS011;24062;47.480;8.768;2022-09-09T05:28:21;3.67;;;1.30;;
38264;SDS011;24062;47.480;8.768;2022-09-09T05:30:54;1.90;;;1.43;;
38264;SDS011;24062;47.480;8.768;2022-09-09T05:33:22;3.03;;;1.80;;
38264;SDS011;24062;47.480;8.768;2022-09-09T05:35:55;3.60;;;2.10;;
38264;SDS011;24062;47.480;8.768;2022-09-09T05:38:23;4.47;;;2.23;;
38264;SDS011;24062;47.480;8.768;2022-09-09T05:40:50;6.60;;;2.50;;
38264;SDS011;24062;47.480;8.768;2022-09-09T05:43:18;3.70;;;2.40;;
38264;SDS011;24062;47.480;8.768;2022-09-09T05:45:45;4.13;;;2.00;;
38264;SDS011;24062;47.480;8.768;2022-09-09T05:48:13;3.83;;;2.30;;
38264;SDS011;24062;47.480;8.768;2022-09-09T05:50:42;3.60;;;2.20;;
38264;SDS011;24062;47.480;8.768;2022-09-09T05:53:10;2.87;;;2.13;;
38264;SDS011;24062;47.480;8.768;2022-09-09T05:55:37;2.50;;;1.57;;
38264;SDS011;24062;47.480;8.768;2022-09-09T05:58:03;2.10;;;1.80;;
38264;SDS011;24062;47.480;8.768;2022-09-09T06:00:30;5.73;;;1.90;;
38264;SDS011;24062;47.480;8.768;2022-09-09T06:02:57;2.97;;;1.70;;
38264;SDS011;24062;47.480;8.768;2022-09-09T06:05:25;3.07;;;1.63;;
38264;SDS011;24062;47.480;8.768;2022-09-09T06:07:54;2.37;;;1.67;;
38264;SDS011;24062;47.480;8.768;2022-09-09T06:10:21;4.93;;;1.37;;
38264;SDS011;24062;47.480;8.768;2022-09-09T06:12:48;2.80;;;1.20;;
38264;SDS011;24062;47.480;8.768;2022-09-09T06:15:18;2.77;;;1.20;;
38264;SDS011;24062;47.480;8.768;2022-09-09T06:17:45;2.10;;;1.60;;
38264;SDS011;24062;47.480;8.768;2022-09-09T06:20:12;3.20;;;1.50;;
38264;SDS011;24062;47.480;8.768;2022-09-09T06:22:39;3.03;;;2.10;;
38264;SDS011;24062;47.480;8.768;2022-09-09T06:25:08;3.77;;;1.73;;
38264;SDS011;24062;47.480;8.768;2022-09-09T06:27:36;2.93;;;1.33;;
38264;SDS011;24062;47.480;8.768;2022-09-09T06:30:03;3.57;;;1.30;;
38264;SDS011;24062;47.480;8.768;2022-09-09T06:32:30;2.40;;;1.50;;
38264;SDS011;24062;47.480;8.768;2022-09-09T06:34:59;2.67;;;1.77;;
38264;SDS011;24062;47.480;8.768;2022-09-09T06:37:27;5.37;;;2.03;;
38264;SDS011;24062;47.480;8.768;2022-09-09T06:39:54;3.90;;;1.33;;
38264;SDS011;24062;47.480;8.768;2022-09-09T06:42:22;2.50;;;1.60;;
38264;SDS011;24062;47.480;8.768;2022-09-09T06:44:49;1.60;;;1.10;;
38264;SDS011;24062;47.480;8.768;2022-09-09T06:47:17;8.13;;;1.43;;
38264;SDS011;24062;47.480;8.768;2022-09-09T06:49:44;2.70;;;1.13;;
38264;SDS011;24062;47.480;8.768;2022-09-09T06:52:11;3.17;;;1.20;;
38264;SDS011;24062;47.480;8.768;2022-09-09T06:54:38;1.80;;;0.87;;
38264;SDS011;24062;47.480;8.768;2022-09-09T06:57:04;1.80;;;0.90;;
38264;SDS011;24062;47.480;8.768;2022-09-09T06:59:34;2.87;;;1.03;;
38264;SDS011;24062;47.480;8.768;2022-09-09T07:02:01;1.70;;;0.97;;
38264;SDS011;24062;47.480;8.768;2022-09-09T07:04:28;2.60;;;1.30;;
38264;SDS011;24062;47.480;8.768;2022-09-09T07:06:55;2.00;;;1.20;;
38264;SDS011;24062;47.480;8.768;2022-09-09T07:09:22;2.57;;;1.20;;
38264;SDS011;24062;47.480;8.768;2022-09-09T07:11:49;5.40;;;1.60;;
38264;SDS011;24062;47.480;8.768;2022-09-09T07:14:18;3.70;;;1.60;;
38264;SDS011;24062;47.480;8.768;2022-09-09T07:16:48;4.40;;;2.00;;
38264;SDS011;24062;47.480;8.768;2022-09-09T07:19:15;3.70;;;1.33;;
38264;SDS011;24062;47.480;8.768;2022-09-09T07:21:42;2.73;;;1.33;;
38264;SDS011;24062;47.480;8.768;2022-09-09T07:24:10;2.10;;;1.03;;
38264;SDS011;24062;47.480;8.768;2022-09-09T07:26:38;2.90;;;1.10;;
38264;SDS011;24062;47.480;8.768;2022-09-09T07:29:05;2.53;;;1.20;;
38264;SDS011;24062;47.480;8.768;2022-09-09T07:31:34;3.87;;;1.47;;
38264;SDS011;24062;47.480;8.768;2022-09-09T07:34:05;2.13;;;0.90;;
38264;SDS011;24062;47.480;8.768;2022-09-09T07:36:33;3.50;;;1.00;;
38264;SDS011;24062;47.480;8.768;2022-09-09T07:39:01;1.63;;;0.73;;
38264;SDS011;24062;47.480;8.768;2022-09-09T07:41:31;1.50;;;0.73;;
38264;SDS011;24062;47.480;8.768;2022-09-09T07:44:03;2.73;;;0.93;;
38264;SDS011;24062;47.480;8.768;2022-09-09T07:46:31;1.60;;;0.67;;
38264;SDS011;24062;47.480;8.768;2022-09-09T07:48:59;2.10;;;1.03;;
38264;SDS011;24062;47.480;8.768;2022-09-09T07:51:28;3.03;;;0.80;;
38264;SDS011;24062;47.480;8.768;2022-09-09T07:53:57;3.00;;;1.00;;
38264;SDS011;24062;47.480;8.768;2022-09-09T07:56:25;2.43;;;1.50;;
38264;SDS011;24062;47.480;8.768;2022-09-09T07:58:53;7.00;;;1.93;;
38264;SDS011;24062;47.480;8.768;2022-09-09T08:01:22;3.03;;;1.03;;
38264;SDS011;24062;47.480;8.768;2022-09-09T08:03:52;2.80;;;1.17;;
38264;SDS011;24062;47.480;8.768;2022-09-09T08:06:21;3.60;;;0.67;;
38264;SDS011;24062;47.480;8.768;2022-09-09T08:08:51;2.63;;;0.90;;
38264;SDS011;24062;47.480;8.768;2022-09-09T08:11:20;4.63;;;1.00;;
38264;SDS011;24062;47.480;8.768;2022-09-09T08:13:49;4.10;;;0.80;;
38264;SDS011;24062;47.480;8.768;2022-09-09T08:16:17;2.50;;;0.90;;
38264;SDS011;24062;47.480;8.768;2022-09-09T08:18:46;1.80;;;1.03;;
38264;SDS011;24062;47.480;8.768;2022-09-09T08:21:15;4.63;;;0.90;;
38264;SDS011;24062;47.480;8.768;2022-09-09T08:23:44;1.80;;;0.70;;
38264;SDS011;24062;47.480;8.768;2022-09-09T08:26:14;2.97;;;1.00;;
38264;SDS011;24062;47.480;8.768;2022-09-09T08:28:43;2.10;;;0.80;;
38264;SDS011;24062;47.480;8.768;2022-09-09T08:31:10;3.10;;;1.00;;
38264;SDS011;24062;47.480;8.768;2022-09-09T08:33:39;2.23;;;0.90;;
38264;SDS011;24062;47.480;8.768;2022-09-09T08:36:08;3.57;;;1.10;;
38264;SDS011;24062;47.480;8.768;2022-09-09T08:38:37;4.53;;;1.37;;
38264;SDS011;24062;47.480;8.768;2022-09-09T08:41:17;2.90;;;1.03;;
38264;SDS011;24062;47.480;8.768;2022-09-09T08:44:06;2.27;;;0.97;;
38264;SDS011;24062;47.480;8.768;2022-09-09T08:46:39;5.00;;;0.90;;
38264;SDS011;24062;47.480;8.768;2022-09-09T08:52:15;2.97;;;0.77;;
38264;SDS011;24062;47.480;8.768;2022-09-09T08:54:45;5.47;;;1.30;;
38264;SDS011;24062;47.480;8.768;2022-09-09T08:57:18;3.27;;;0.93;;
38264;SDS011;24062;47.480;8.768;2022-09-09T08:59:51;2.93;;;0.87;;
38264;SDS011;24062;47.480;8.768;2022-09-09T09:02:21;4.03;;;0.80;;
38264;SDS011;24062;47.480;8.768;2022-09-09T09:04:56;4.57;;;1.10;;
38264;SDS011;24062;47.480;8.768;2022-09-09T09:07:33;2.70;;;0.90;;
38264;SDS011;24062;47.480;8.768;2022-09-09T09:10:16;2.27;;;0.70;;
38264;SDS011;24062;47.480;8.768;2022-09-09T09:12:50;2.00;;;0.83;;
38264;SDS011;24062;47.480;8.768;2022-09-09T09:15:18;1.50;;;0.80;;
38264;SDS011;24062;47.480;8.768;2022-09-09T09:17:49;2.00;;;0.80;;
38264;SDS011;24062;47.480;8.768;2022-09-09T09:20:16;3.43;;;0.83;;
38264;SDS011;24062;47.480;8.768;2022-09-09T09:22:48;3.20;;;0.90;;
38264;SDS011;24062;47.480;8.768;2022-09-09T09:25:18;3.07;;;0.80;;
38264;SDS011;24062;47.480;8.768;2022-09-09T09:27:49;4.13;;;0.80;;
38264;SDS011;24062;47.480;8.768;2022-09-09T09:30:26;2.20;;;0.80;;
38264;SDS011;24062;47.480;8.768;2022-09-09T09:33:00;3.23;;;1.10;;
38264;SDS011;24062;47.480;8.768;2022-09-09T09:35:31;2.57;;;0.93;;
38264;SDS011;24062;47.480;8.768;2022-09-09T09:37:58;2.47;;;0.90;;
38264;SDS011;24062;47.480;8.768;2022-09-09T09:40:27;3.03;;;1.00;;
38264;SDS011;24062;47.480;8.768;2022-09-09T09:42:56;4.53;;;0.73;;
38264;SDS011;24062;47.480;8.768;2022-09-09T09:45:31;2.53;;;0.80;;
38264;SDS011;24062;47.480;8.768;2022-09-09T09:48:00;3.17;;;0.63;;
38264;SDS011;24062;47.480;8.768;2022-09-09T09:50:29;3.90;;;0.93;;
38264;SDS011;24062;47.480;8.768;2022-09-09T09:52:58;2.80;;;0.80;;
38264;SDS011;24062;47.480;8.768;2022-09-09T09:55:27;6.00;;;1.10;;
38264;SDS011;24062;47.480;8.768;2022-09-09T09:58:02;2.20;;;0.90;;
38264;SDS011;24062;47.480;8.768;2022-09-09T10:00:30;2.43;;;0.87;;
38264;SDS011;24062;47.480;8.768;2022-09-09T10:03:00;3.80;;;1.00;;
38264;SDS011;24062;47.480;8.768;2022-09-09T10:05:27;4.83;;;0.97;;
38264;SDS011;24062;47.480;8.768;2022-09-09T10:08:03;2.33;;;0.83;;
38264;SDS011;24062;47.480;8.768;2022-09-09T10:13:34;2.80;;;0.87;;
38264;SDS011;24062;47.480;8.768;2022-09-09T10:16:13;3.73;;;1.30;;
38264;SDS011;24062;47.480;8.768;2022-09-09T10:18:55;3.10;;;0.80;;
38264;SDS011;24062;47.480;8.768;2022-09-09T10:21:29;3.33;;;0.93;;
38264;SDS011;24062;47.480;8.768;2022-09-09T10:24:33;2.77;;;1.00;;
38264;SDS011;24062;47.480;8.768;2022-09-09T10:27:22;3.20;;;1.00;;
38264;SDS011;24062;47.480;8.768;2022-09-09T10:30:06;5.63;;;1.00;;
38264;SDS011;24062;47.480;8.768;2022-09-09T10:32:39;2.43;;;0.83;;
38264;SDS011;24062;47.480;8.768;2022-09-09T10:35:10;3.40;;;1.07;;
38264;SDS011;24062;47.480;8.768;2022-09-09T10:37:42;4.50;;;0.50;;
38264;SDS011;24062;47.480;8.768;2022-09-09T10:40:26;2.93;;;0.73;;
38264;SDS011;24062;47.480;8.768;2022-09-09T10:43:00;2.37;;;1.00;;
38264;SDS011;24062;47.480;8.768;2022-09-09T10:45:41;2.37;;;0.90;;
38264;SDS011;24062;47.480;8.768;2022-09-09T10:48:19;3.20;;;1.00;;
38264;SDS011;24062;47.480;8.768;2022-09-09T10:51:00;3.40;;;1.70;;
38264;SDS011;24062;47.480;8.768;2022-09-09T10:53:37;2.40;;;0.70;;
38264;SDS011;24062;47.480;8.768;2022-09-09T10:56:15;3.20;;;0.93;;
38264;SDS011;24062;47.480;8.768;2022-09-09T10:58:44;3.30;;;1.10;;
38264;SDS011;24062;47.480;8.768;2022-09-09T11:01:20;2.17;;;0.80;;
38264;SDS011;24062;47.480;8.768;2022-09-09T11:03:51;2.50;;;1.10;;
38264;SDS011;24062;47.480;8.768;2022-09-09T11:06:25;4.20;;;0.87;;
38264;SDS011;24062;47.480;8.768;2022-09-09T11:08:58;2.10;;;0.87;;
38264;SDS011;24062;47.480;8.768;2022-09-09T11:11:27;2.40;;;0.90;;
38264;SDS011;24062;47.480;8.768;2022-09-09T11:14:01;3.37;;;0.90;;
38264;SDS011;24062;47.480;8.768;2022-09-09T11:16:32;3.47;;;1.00;;
38264;SDS011;24062;47.480;8.768;2022-09-09T11:19:10;2.33;;;0.80;;
38264;SDS011;24062;47.480;8.768;2022-09-09T11:21:42;2.30;;;0.80;;
38264;SDS011;24062;47.480;8.768;2022-09-09T11:24:12;3.30;;;0.80;;
38264;SDS011;24062;47.480;8.768;2022-09-09T11:26:46;2.20;;;0.60;;
38264;SDS011;24062;47.480;8.768;2022-09-09T11:32:37;4.00;;;0.80;;
38264;SDS011;24062;47.480;8.768;2022-09-09T11:35:21;2.10;;;1.10;;
38264;SDS011;24062;47.480;8.768;2022-09-09T11:38:06;2.93;;;0.87;;
38264;SDS011;24062;47.480;8.768;2022-09-09T11:40:46;2.90;;;0.77;;
38264;SDS011;24062;47.480;8.768;2022-09-09T11:43:21;3.50;;;0.90;;
38264;SDS011;24062;47.480;8.768;2022-09-09T11:45:53;2.13;;;0.70;;
38264;SDS011;24062;47.480;8.768;2022-09-09T11:48:26;4.70;;;0.80;;
38264;SDS011;24062;47.480;8.768;2022-09-09T11:51:00;1.80;;;0.60;;
38264;SDS011;24062;47.480;8.768;2022-09-09T11:53:30;1.80;;;0.60;;
38264;SDS011;24062;47.480;8.768;2022-09-09T11:56:02;1.97;;;0.73;;
38264;SDS011;24062;47.480;8.768;2022-09-09T11:58:33;3.50;;;0.73;;
38264;SDS011;24062;47.480;8.768;2022-09-09T12:01:28;2.40;;;0.80;;
38264;SDS011;24062;47.480;8.768;2022-09-09T12:04:09;2.53;;;0.80;;
38264;SDS011;24062;47.480;8.768;2022-09-09T12:06:54;2.20;;;0.80;;
38264;SDS011;24062;47.480;8.768;2022-09-09T12:09:28;4.27;;;1.07;;
38264;SDS011;24062;47.480;8.768;2022-09-09T12:12:17;2.87;;;0.80;;
38264;SDS011;24062;47.480;8.768;2022-09-09T12:17:48;4.17;;;0.97;;
38264;SDS011;24062;47.480;8.768;2022-09-09T12:20:19;3.80;;;0.70;;
38264;SDS011;24062;47.480;8.768;2022-09-09T12:22:53;3.20;;;0.83;;
38264;SDS011;24062;47.480;8.768;2022-09-09T12:25:47;3.47;;;0.97;;
38264;SDS011;24062;47.480;8.768;2022-09-09T12:28:21;2.20;;;0.70;;
38264;SDS011;24062;47.480;8.768;2022-09-09T12:30:54;2.20;;;0.83;;
38264;SDS011;24062;47.480;8.768;2022-09-09T12:33:32;4.20;;;1.13;;
38264;SDS011;24062;47.480;8.768;2022-09-09T12:36:02;4.35;;;0.70;;
38264;SDS011;24062;47.480;8.768;2022-09-09T12:38:32;3.03;;;0.68;;
38264;SDS011;24062;47.480;8.768;2022-09-09T12:41:01;2.95;;;0.90;;
38264;SDS011;24062;47.480;8.768;2022-09-09T12:43:28;3.00;;;0.90;;
38264;SDS011;24062;47.480;8.768;2022-09-09T12:45:56;8.93;;;1.20;;
38264;SDS011;24062;47.480;8.768;2022-09-09T12:48:30;3.78;;;0.70;;
38264;SDS011;24062;47.480;8.768;2022-09-09T12:51:01;1.70;;;0.77;;
38264;SDS011;24062;47.480;8.768;2022-09-09T12:53:31;2.80;;;0.77;;
38264;SDS011;24062;47.480;8.768;2022-09-09T12:56:02;2.22;;;0.82;;
38264;SDS011;24062;47.480;8.768;2022-09-09T12:58:32;1.60;;;0.70;;
38264;SDS011;24062;47.480;8.768;2022-09-09T13:01:00;7.70;;;0.70;;
38264;SDS011;24062;47.480;8.768;2022-09-09T13:03:30;5.10;;;0.80;;
38264;SDS011;24062;47.480;8.768;2022-09-09T13:05:58;2.78;;;0.75;;
38264;SDS011;24062;47.480;8.768;2022-09-09T13:08:38;4.88;;;0.88;;
38264;SDS011;24062;47.480;8.768;2022-09-09T13:11:06;2.65;;;1.10;;
38264;SDS011;24062;47.480;8.768;2022-09-09T13:13:36;4.22;;;0.75;;
38264;SDS011;24062;47.480;8.768;2022-09-09T13:16:05;2.15;;;0.70;;
38264;SDS011;24062;47.480;8.768;2022-09-09T13:18:44;2.10;;;0.70;;
38264;SDS011;24062;47.480;8.768;2022-09-09T13:21:11;3.25;;;0.82;;
38264;SDS011;24062;47.480;8.768;2022-09-09T13:23:40;1.85;;;0.80;;
38264;SDS011;24062;47.480;8.768;2022-09-09T13:26:19;4.03;;;0.73;;
38264;SDS011;24062;47.480;8.768;2022-09-09T13:28:48;2.90;;;0.95;;
38264;SDS011;24062;47.480;8.768;2022-09-09T13:31:19;1.70;;;0.80;;
38264;SDS011;24062;47.480;8.768;2022-09-09T13:33:47;2.45;;;0.60;;
38264;SDS011;24062;47.480;8.768;2022-09-09T13:36:14;2.25;;;0.82;;
38264;SDS011;24062;47.480;8.768;2022-09-09T13:38:55;2.72;;;0.98;;
38264;SDS011;24062;47.480;8.768;2022-09-09T13:41:25;2.20;;;0.70;;
38264;SDS011;24062;47.480;8.768;2022-09-09T13:43:56;6.32;;;1.25;;
38264;SDS011;24062;47.480;8.768;2022-09-09T13:46:30;1.70;;;0.63;;
38264;SDS011;24062;47.480;8.768;2022-09-09T13:49:00;1.80;;;0.90;;
38264;SDS011;24062;47.480;8.768;2022-09-09T13:51:30;3.03;;;0.90;;
38264;SDS011;24062;47.480;8.768;2022-09-09T13:54:03;2.95;;;0.85;;
38264;SDS011;24062;47.480;8.768;2022-09-09T13:56:31;2.92;;;1.08;;
38264;SDS011;24062;47.480;8.768;2022-09-09T13:58:58;2.70;;;0.90;;
38264;SDS011;24062;47.480;8.768;2022-09-09T14:01:25;1.60;;;0.55;;
38264;SDS011;24062;47.480;8.768;2022-09-09T14:03:53;2.45;;;0.60;;
38264;SDS011;24062;47.480;8.768;2022-09-09T14:06:20;2.17;;;1.17;;
38264;SDS011;24062;47.480;8.768;2022-09-09T14:08:48;7.80;;;1.20;;
38264;SDS011;24062;47.480;8.768;2022-09-09T14:11:17;3.08;;;0.65;;
38264;SDS011;24062;47.480;8.768;2022-09-09T14:13:46;2.10;;;0.55;;
38264;SDS011;24062;47.480;8.768;2022-09-09T14:16:14;2.47;;;0.90;;
38264;SDS011;24062;47.480;8.768;2022-09-09T14:18:42;3.92;;;1.23;;
38264;SDS011;24062;47.480;8.768;2022-09-09T14:21:09;2.33;;;0.70;;
38264;SDS011;24062;47.480;8.768;2022-09-09T14:23:37;2.15;;;0.70;;
38264;SDS011;24062;47.480;8.768;2022-09-09T14:26:05;3.33;;;0.70;;
38264;SDS011;24062;47.480;8.768;2022-09-09T14:28:34;1.80;;;0.68;;
38264;SDS011;24062;47.480;8.768;2022-09-09T14:31:02;1.77;;;0.65;;
38264;SDS011;24062;47.480;8.768;2022-09-09T14:33:30;4.68;;;0.77;;
38264;SDS011;24062;47.480;8.768;2022-09-09T14:35:57;3.50;;;0.75;;
38264;SDS011;24062;47.480;8.768;2022-09-09T14:38:24;2.10;;;0.63;;
38264;SDS011;24062;47.480;8.768;2022-09-09T14:40:54;1.80;;;0.50;;
38264;SDS011;24062;47.480;8.768;2022-09-09T14:43:21;2.25;;;0.65;;
38264;SDS011;24062;47.480;8.768;2022-09-09T14:45:49;2.00;;;0.70;;
38264;SDS011;24062;47.480;8.768;2022-09-09T14:48:17;2.92;;;0.90;;
38264;SDS011;24062;47.480;8.768;2022-09-09T14:50:44;2.38;;;0.80;;
38264;SDS011;24062;47.480;8.768;2022-09-09T14:53:11;4.00;;;1.00;;
38264;SDS011;24062;47.480;8.768;2022-09-09T14:55:38;3.45;;;0.93;;
38264;SDS011;24062;47.480;8.768;2022-09-09T14:58:05;2.53;;;0.73;;
38264;SDS011;24062;47.480;8.768;2022-09-09T15:00:32;2.90;;;0.75;;
38264;SDS011;24062;47.480;8.768;2022-09-09T15:03:00;2.40;;;0.88;;
38264;SDS011;24062;47.480;8.768;2022-09-09T15:05:27;3.63;;;0.75;;
38264;SDS011;24062;47.480;8.768;2022-09-09T15:07:54;2.47;;;0.63;;
38264;SDS011;24062;47.480;8.768;2022-09-09T15:10:21;5.35;;;1.30;;
38264;SDS011;24062;47.480;8.768;2022-09-09T15:12:48;3.03;;;1.08;;
38264;SDS011;24062;47.480;8.768;2022-09-09T15:15:15;6.85;;;1.40;;
38264;SDS011;24062;47.480;8.768;2022-09-09T15:17:42;1.55;;;0.60;;
38264;SDS011;24062;47.480;8.768;2022-09-09T15:20:10;5.43;;;0.70;;
38264;SDS011;24062;47.480;8.768;2022-09-09T15:22:37;3.67;;;1.00;;
38264;SDS011;24062;47.480;8.768;2022-09-09T15:25:05;3.13;;;0.80;;